createdAt,value
2022-12-01T00:06:32.645Z,5.3
2022-12-01T00:16:32.983Z,5.4
2022-12-01T00:26:33.949Z,5.3
2022-12-01T00:36:34.477Z,5.3
2022-12-01T00:46:35.528Z,5.3
2022-12-01T01:06:36.004Z,5.3
2022-12-01T01:16:36.320Z,5.3
2022-12-01T01:26:36.847Z,5.3
2022-12-01T01:36:37.160Z,5.3
2022-12-01T01:46:37.963Z,5.3
2022-12-01T01:56:38.334Z,5.3
2022-12-01T02:06:39.070Z,5.3
2022-12-01T02:16:39.828Z,5.3
2022-12-01T02:36:41.738Z,5.3
2022-12-01T02:46:41.815Z,5.3
2022-12-01T02:56:42.766Z,5.3
2022-12-01T03:06:43.781Z,5.3
2022-12-01T03:16:43.871Z,5.3
2022-12-01T03:26:44.925Z,5.3
2022-12-01T03:36:45.524Z,5.3
2022-12-01T03:46:45.955Z,5.3
2022-12-01T03:56:46.576Z,5.3
2022-12-01T04:06:47.633Z,5.3
2022-12-01T04:16:47.744Z,5.3
2022-12-01T04:26:48.058Z,5.3
2022-12-01T04:46:49.175Z,5.3
2022-12-01T04:56:49.912Z,5.2
2022-12-01T05:06:50.311Z,5.2
2022-12-01T05:16:50.967Z,5.3
2022-12-01T05:26:51.326Z,5.2
2022-12-01T05:36:51.661Z,5.2
2022-12-01T05:46:52.014Z,5.2
2022-12-01T05:56:53.072Z,5.2
2022-12-01T06:16:54.679Z,5.2
2022-12-01T06:26:55.719Z,5.1
2022-12-01T06:46:56.464Z,5.1
2022-12-01T06:56:57.353Z,5.1
2022-12-01T07:06:58.252Z,5.1
2022-12-01T07:16:58.788Z,5.1
2022-12-01T07:26:59.295Z,5.1
2022-12-01T07:37:00.210Z,5.1
2022-12-01T07:47:01.043Z,5.1
2022-12-01T07:57:01.722Z,5.1
2022-12-01T08:07:02.447Z,5.1
2022-12-01T08:17:02.590Z,5.2
2022-12-01T08:27:03.498Z,5.2
2022-12-01T08:37:04.088Z,5.2
2022-12-01T08:57:04.931Z,5.2
2022-12-01T09:07:05.815Z,5.1
2022-12-01T09:17:06.197Z,5.2
2022-12-01T09:27:07.152Z,5.2
2022-12-01T09:47:07.627Z,5.3
2022-12-01T09:57:08.540Z,5.3
2022-12-01T10:17:09.423Z,5.3
2022-12-01T10:27:09.832Z,5.3
2022-12-01T10:47:10.594Z,5.4
2022-12-01T10:57:11.151Z,5.4
2022-12-01T11:07:11.675Z,5.5
2022-12-01T11:17:12.706Z,5.5
2022-12-01T11:27:13.516Z,5.6
2022-12-01T11:37:14.234Z,5.5
2022-12-01T11:47:21.970Z,5.4
2022-12-01T11:57:33.530Z,5.5
2022-12-01T12:07:15.843Z,5.5
2022-12-01T12:17:16.515Z,5.5
2022-12-01T12:27:16.552Z,5.6
2022-12-01T12:37:17.640Z,5.5
2022-12-01T12:47:18.547Z,5.5
2022-12-01T12:57:19.514Z,5.6
2022-12-01T13:07:20.105Z,5.6
2022-12-01T13:17:21.100Z,5.6
2022-12-01T13:27:21.589Z,5.6
2022-12-01T13:37:22.280Z,5.5
2022-12-01T13:47:22.939Z,5.5
2022-12-01T13:57:23.219Z,5.5
2022-12-01T14:07:23.492Z,5.5
2022-12-01T14:17:24.124Z,5.5
2022-12-01T14:27:24.460Z,5.5
2022-12-01T14:37:24.995Z,5.4
2022-12-01T14:47:25.741Z,5.4
2022-12-01T15:07:26.794Z,5.3
2022-12-01T15:17:26.894Z,5.2
2022-12-01T15:27:27.697Z,5.2
2022-12-01T15:37:28.504Z,5.2
2022-12-01T15:57:30.377Z,5.1
2022-12-01T16:07:44.297Z,5.1
2022-12-01T16:17:31.788Z,5.1
2022-12-01T16:27:32.263Z,5
2022-12-01T16:37:33.027Z,5
2022-12-01T16:47:33.885Z,5
2022-12-01T16:57:34.688Z,4.9
2022-12-01T17:07:35.187Z,4.9
2022-12-01T17:17:35.939Z,4.9
2022-12-01T17:37:37.362Z,4.8
2022-12-01T17:47:37.568Z,4.7
2022-12-01T17:57:38.492Z,4.7
2022-12-01T18:07:39.136Z,4.6
2022-12-01T18:17:40.145Z,4.6
2022-12-01T18:27:40.786Z,4.5
2022-12-01T18:37:41.521Z,4.5
2022-12-01T18:47:42.367Z,4.5
2022-12-01T18:57:42.608Z,4.4
2022-12-01T19:07:43.310Z,4.4
2022-12-01T19:17:43.817Z,4.2
2022-12-01T19:27:44.788Z,4.1
2022-12-01T19:37:45.577Z,4.1
2022-12-01T19:47:46.662Z,4
2022-12-01T19:57:46.953Z,4
2022-12-01T20:07:47.809Z,4
2022-12-01T20:17:48.438Z,4
2022-12-01T20:27:49.471Z,4
2022-12-01T20:37:50.439Z,3.9
2022-12-01T20:47:51.029Z,3.9
2022-12-01T20:57:51.750Z,3.9
2022-12-01T21:07:52.623Z,3.9
2022-12-01T21:17:53.570Z,3.8
2022-12-01T21:37:54.634Z,3.8
2022-12-01T21:47:54.927Z,3.7
2022-12-01T21:57:55.047Z,3.6
2022-12-01T22:07:55.668Z,3.5
2022-12-01T22:17:56.081Z,3.5
2022-12-01T22:27:56.413Z,3.5
2022-12-01T22:37:57.295Z,3.4
2022-12-01T22:47:57.970Z,3.3
2022-12-01T22:57:58.811Z,3.3
2022-12-01T23:07:58.979Z,3.2
2022-12-01T23:17:59.186Z,3.1
2022-12-01T23:27:59.958Z,3
2022-12-01T23:38:00.372Z,3
2022-12-01T23:48:01.021Z,2.9
2022-12-01T23:58:01.911Z,2.9
